sensor_id;sensor_type;location;lat;lon;timestamp;P1;durP1;ratioP1;P2;durP2;ratioP2
1414;SDS011;702;49.466;11.086;2022-11-18T00:01:57;7.10;;;6.03;;
1414;SDS011;702;49.466;11.086;2022-11-18T00:04:24;7.87;;;6.10;;
1414;SDS011;702;49.466;11.086;2022-11-18T00:06:51;7.27;;;6.40;;
1414;SDS011;702;49.466;11.086;2022-11-18T00:09:18;8.27;;;5.50;;
1414;SDS011;702;49.466;11.086;2022-11-18T00:11:47;8.43;;;5.60;;
1414;SDS011;702;49.466;11.086;2022-11-18T00:14:33;6.77;;;4.70;;
1414;SDS011;702;49.466;11.086;2022-11-18T00:17:00;11.43;;;5.90;;
1414;SDS011;702;49.466;11.086;2022-11-18T00:19:31;7.00;;;6.00;;
1414;SDS011;702;49.466;11.086;2022-11-18T00:22:00;11.40;;;6.17;;
1414;SDS011;702;49.466;11.086;2022-11-18T00:24:28;9.70;;;5.97;;
1414;SDS011;702;49.466;11.086;2022-11-18T00:26:55;7.23;;;6.30;;
1414;SDS011;702;49.466;11.086;2022-11-18T00:29:23;7.20;;;6.13;;
1414;SDS011;702;49.466;11.086;2022-11-18T00:31:53;8.17;;;6.77;;
1414;SDS011;702;49.466;11.086;2022-11-18T00:34:21;10.20;;;6.50;;
1414;SDS011;702;49.466;11.086;2022-11-18T00:36:49;9.83;;;6.93;;
1414;SDS011;702;49.466;11.086;2022-11-18T00:39:17;8.77;;;7.10;;
1414;SDS011;702;49.466;11.086;2022-11-18T00:41:45;11.50;;;7.13;;
1414;SDS011;702;49.466;11.086;2022-11-18T00:44:31;9.30;;;6.60;;
1414;SDS011;702;49.466;11.086;2022-11-18T00:47:00;9.37;;;7.03;;
1414;SDS011;702;49.466;11.086;2022-11-18T00:49:27;9.03;;;7.23;;
1414;SDS011;702;49.466;11.086;2022-11-18T00:51:54;11.67;;;7.97;;
1414;SDS011;702;49.466;11.086;2022-11-18T00:54:21;13.73;;;8.23;;
1414;SDS011;702;49.466;11.086;2022-11-18T00:56:49;11.90;;;8.27;;
1414;SDS011;702;49.466;11.086;2022-11-18T00:59:16;11.53;;;7.60;;
1414;SDS011;702;49.466;11.086;2022-11-18T01:01:43;8.77;;;7.40;;
1414;SDS011;702;49.466;11.086;2022-11-18T01:04:12;10.00;;;6.80;;
1414;SDS011;702;49.466;11.086;2022-11-18T01:06:39;15.07;;;8.20;;
1414;SDS011;702;49.466;11.086;2022-11-18T01:09:06;13.57;;;7.77;;
1414;SDS011;702;49.466;11.086;2022-11-18T01:11:34;10.63;;;9.20;;
1414;SDS011;702;49.466;11.086;2022-11-18T01:14:18;9.13;;;8.23;;
1414;SDS011;702;49.466;11.086;2022-11-18T01:16:46;10.40;;;7.50;;
1414;SDS011;702;49.466;11.086;2022-11-18T01:19:16;9.60;;;8.57;;
1414;SDS011;702;49.466;11.086;2022-11-18T01:21:45;9.40;;;7.73;;
1414;SDS011;702;49.466;11.086;2022-11-18T01:24:12;9.60;;;8.00;;
1414;SDS011;702;49.466;11.086;2022-11-18T01:26:39;12.33;;;8.90;;
1414;SDS011;702;49.466;11.086;2022-11-18T01:29:07;10.20;;;9.17;;
1414;SDS011;702;49.466;11.086;2022-11-18T01:31:36;13.73;;;8.43;;
1414;SDS011;702;49.466;11.086;2022-11-18T01:34:03;11.40;;;8.40;;
1414;SDS011;702;49.466;11.086;2022-11-18T01:36:32;14.10;;;9.10;;
1414;SDS011;702;49.466;11.086;2022-11-18T01:38:59;13.57;;;9.70;;
1414;SDS011;702;49.466;11.086;2022-11-18T01:41:27;12.73;;;9.27;;
1414;SDS011;702;49.466;11.086;2022-11-18T01:43:54;12.57;;;8.90;;
1414;SDS011;702;49.466;11.086;2022-11-18T01:46:25;12.97;;;9.73;;
1414;SDS011;702;49.466;11.086;2022-11-18T01:48:55;15.63;;;11.53;;
1414;SDS011;702;49.466;11.086;2022-11-18T01:51:27;14.70;;;11.53;;
1414;SDS011;702;49.466;11.086;2022-11-18T01:54:01;13.10;;;11.63;;
1414;SDS011;702;49.466;11.086;2022-11-18T01:56:35;19.80;;;11.60;;
1414;SDS011;702;49.466;11.086;2022-11-18T01:59:06;13.80;;;11.13;;
1414;SDS011;702;49.466;11.086;2022-11-18T02:01:37;12.20;;;10.90;;
1414;SDS011;702;49.466;11.086;2022-11-18T02:04:05;12.90;;;11.37;;
1414;SDS011;702;49.466;11.086;2022-11-18T02:06:36;11.63;;;10.33;;
1414;SDS011;702;49.466;11.086;2022-11-18T02:09:03;14.10;;;11.80;;
1414;SDS011;702;49.466;11.086;2022-11-18T02:11:31;14.90;;;11.60;;
1414;SDS011;702;49.466;11.086;2022-11-18T02:14:19;15.00;;;11.03;;
1414;SDS011;702;49.466;11.086;2022-11-18T02:17:00;13.83;;;11.97;;
1414;SDS011;702;49.466;11.086;2022-11-18T02:19:49;18.90;;;12.10;;
1414;SDS011;702;49.466;11.086;2022-11-18T02:22:48;14.40;;;11.70;;
1414;SDS011;702;49.466;11.086;2022-11-18T02:26:15;15.73;;;12.00;;
1414;SDS011;702;49.466;11.086;2022-11-18T02:29:07;16.50;;;11.63;;
1414;SDS011;702;49.466;11.086;2022-11-18T02:31:40;15.50;;;11.50;;
1414;SDS011;702;49.466;11.086;2022-11-18T02:34:16;17.20;;;10.90;;
1414;SDS011;702;49.466;11.086;2022-11-18T02:36:54;17.57;;;10.77;;
1414;SDS011;702;49.466;11.086;2022-11-18T02:39:27;15.47;;;11.27;;
1414;SDS011;702;49.466;11.086;2022-11-18T02:42:00;15.17;;;12.43;;
1414;SDS011;702;49.466;11.086;2022-11-18T02:44:33;14.20;;;11.00;;
1414;SDS011;702;49.466;11.086;2022-11-18T02:47:04;13.00;;;11.03;;
1414;SDS011;702;49.466;11.086;2022-11-18T02:49:36;20.87;;;11.80;;
1414;SDS011;702;49.466;11.086;2022-11-18T02:52:07;15.20;;;12.60;;
1414;SDS011;702;49.466;11.086;2022-11-18T02:54:36;18.60;;;11.63;;
1414;SDS011;702;49.466;11.086;2022-11-18T02:57:06;13.57;;;11.60;;
1414;SDS011;702;49.466;11.086;2022-11-18T02:59:36;13.23;;;11.40;;
1414;SDS011;702;49.466;11.086;2022-11-18T03:02:03;12.50;;;10.70;;
1414;SDS011;702;49.466;11.086;2022-11-18T03:04:30;13.20;;;10.67;;
1414;SDS011;702;49.466;11.086;2022-11-18T03:07:01;15.63;;;11.00;;
1414;SDS011;702;49.466;11.086;2022-11-18T03:09:35;15.53;;;11.43;;
1414;SDS011;702;49.466;11.086;2022-11-18T03:12:08;12.90;;;11.50;;
1414;SDS011;702;49.466;11.086;2022-11-18T03:14:48;17.90;;;10.83;;
1414;SDS011;702;49.466;11.086;2022-11-18T03:17:24;11.90;;;10.70;;
1414;SDS011;702;49.466;11.086;2022-11-18T03:20:12;12.73;;;11.33;;
1414;SDS011;702;49.466;11.086;2022-11-18T03:22:47;11.53;;;10.33;;
1414;SDS011;702;49.466;11.086;2022-11-18T03:25:20;11.50;;;10.30;;
1414;SDS011;702;49.466;11.086;2022-11-18T03:27:55;10.70;;;9.60;;
1414;SDS011;702;49.466;11.086;2022-11-18T03:30:34;12.53;;;10.80;;
1414;SDS011;702;49.466;11.086;2022-11-18T03:33:09;12.80;;;10.83;;
1414;SDS011;702;49.466;11.086;2022-11-18T03:35:40;15.20;;;10.07;;
1414;SDS011;702;49.466;11.086;2022-11-18T03:38:12;14.50;;;10.53;;
1414;SDS011;702;49.466;11.086;2022-11-18T03:40:44;11.10;;;10.00;;
1414;SDS011;702;49.466;11.086;2022-11-18T03:43:16;10.80;;;9.70;;
1414;SDS011;702;49.466;11.086;2022-11-18T03:45:48;10.57;;;9.47;;
1414;SDS011;702;49.466;11.086;2022-11-18T03:48:40;11.37;;;10.17;;
1414;SDS011;702;49.466;11.086;2022-11-18T03:51:13;10.53;;;9.43;;
1414;SDS011;702;49.466;11.086;2022-11-18T03:53:46;11.87;;;9.63;;
1414;SDS011;702;49.466;11.086;2022-11-18T03:56:23;10.53;;;9.43;;
1414;SDS011;702;49.466;11.086;2022-11-18T03:58:58;10.80;;;9.50;;
1414;SDS011;702;49.466;11.086;2022-11-18T04:01:42;9.87;;;8.83;;
1414;SDS011;702;49.466;11.086;2022-11-18T04:04:15;10.27;;;9.10;;
1414;SDS011;702;49.466;11.086;2022-11-18T04:06:46;11.90;;;7.60;;
1414;SDS011;702;49.466;11.086;2022-11-18T04:09:33;12.00;;;7.73;;
1414;SDS011;702;49.466;11.086;2022-11-18T04:12:24;8.70;;;7.20;;
1414;SDS011;702;49.466;11.086;2022-11-18T04:15:01;7.30;;;6.63;;
1414;SDS011;702;49.466;11.086;2022-11-18T04:17:32;6.70;;;6.00;;
1414;SDS011;702;49.466;11.086;2022-11-18T04:20:00;7.67;;;6.87;;
1414;SDS011;702;49.466;11.086;2022-11-18T04:22:27;6.93;;;6.23;;
1414;SDS011;702;49.466;11.086;2022-11-18T04:24:54;7.33;;;5.30;;
1414;SDS011;702;49.466;11.086;2022-11-18T04:27:22;5.00;;;4.53;;
1414;SDS011;702;49.466;11.086;2022-11-18T04:29:49;6.00;;;4.67;;
1414;SDS011;702;49.466;11.086;2022-11-18T04:32:17;6.20;;;4.63;;
1414;SDS011;702;49.466;11.086;2022-11-18T04:34:45;5.10;;;4.60;;
1414;SDS011;702;49.466;11.086;2022-11-18T04:37:12;5.93;;;4.97;;
1414;SDS011;702;49.466;11.086;2022-11-18T04:39:40;5.57;;;4.40;;
1414;SDS011;702;49.466;11.086;2022-11-18T04:42:07;7.90;;;5.00;;
1414;SDS011;702;49.466;11.086;2022-11-18T04:44:34;11.00;;;6.00;;
1414;SDS011;702;49.466;11.086;2022-11-18T04:47:02;7.40;;;6.33;;
1414;SDS011;702;49.466;11.086;2022-11-18T04:49:31;7.43;;;6.63;;
1414;SDS011;702;49.466;11.086;2022-11-18T04:52:02;8.13;;;7.30;;
1414;SDS011;702;49.466;11.086;2022-11-18T04:54:29;8.87;;;6.77;;
1414;SDS011;702;49.466;11.086;2022-11-18T04:56:57;10.00;;;6.60;;
1414;SDS011;702;49.466;11.086;2022-11-18T04:59:25;8.27;;;6.87;;
1414;SDS011;702;49.466;11.086;2022-11-18T05:01:54;9.53;;;7.30;;
1414;SDS011;702;49.466;11.086;2022-11-18T05:04:23;6.30;;;5.70;;
1414;SDS011;702;49.466;11.086;2022-11-18T05:06:52;8.57;;;5.33;;
1414;SDS011;702;49.466;11.086;2022-11-18T05:09:21;8.83;;;5.73;;
1414;SDS011;702;49.466;11.086;2022-11-18T05:11:48;5.40;;;4.57;;
1414;SDS011;702;49.466;11.086;2022-11-18T05:14:33;5.80;;;5.27;;
1414;SDS011;702;49.466;11.086;2022-11-18T05:17:02;6.77;;;5.37;;
1414;SDS011;702;49.466;11.086;2022-11-18T05:19:32;12.70;;;5.67;;
1414;SDS011;702;49.466;11.086;2022-11-18T05:21:59;5.70;;;5.20;;
1414;SDS011;702;49.466;11.086;2022-11-18T05:24:28;7.90;;;5.50;;
1414;SDS011;702;49.466;11.086;2022-11-18T05:26:55;7.43;;;5.80;;
1414;SDS011;702;49.466;11.086;2022-11-18T05:29:22;5.70;;;5.10;;
1414;SDS011;702;49.466;11.086;2022-11-18T05:31:50;5.87;;;4.77;;
1414;SDS011;702;49.466;11.086;2022-11-18T05:34:17;6.03;;;4.73;;
1414;SDS011;702;49.466;11.086;2022-11-18T05:36:45;5.43;;;4.63;;
1414;SDS011;702;49.466;11.086;2022-11-18T05:39:12;9.07;;;5.00;;
1414;SDS011;702;49.466;11.086;2022-11-18T05:41:41;5.37;;;4.53;;
1414;SDS011;702;49.466;11.086;2022-11-18T05:44:25;6.40;;;4.87;;
1414;SDS011;702;49.466;11.086;2022-11-18T05:46:53;5.10;;;4.60;;
1414;SDS011;702;49.466;11.086;2022-11-18T05:49:20;5.13;;;4.60;;
1414;SDS011;702;49.466;11.086;2022-11-18T05:51:48;5.43;;;4.93;;
1414;SDS011;702;49.466;11.086;2022-11-18T05:54:15;8.07;;;4.60;;
1414;SDS011;702;49.466;11.086;2022-11-18T05:56:46;8.40;;;4.60;;
1414;SDS011;702;49.466;11.086;2022-11-18T05:59:14;6.20;;;5.07;;
1414;SDS011;702;49.466;11.086;2022-11-18T06:01:42;5.67;;;5.10;;
1414;SDS011;702;49.466;11.086;2022-11-18T06:04:13;7.37;;;5.30;;
1414;SDS011;702;49.466;11.086;2022-11-18T06:06:43;5.83;;;4.60;;
1414;SDS011;702;49.466;11.086;2022-11-18T06:09:13;6.43;;;5.03;;
1414;SDS011;702;49.466;11.086;2022-11-18T06:11:43;7.43;;;4.60;;
1414;SDS011;702;49.466;11.086;2022-11-18T06:14:18;4.83;;;4.33;;
1414;SDS011;702;49.466;11.086;2022-11-18T06:16:49;6.50;;;3.80;;
1414;SDS011;702;49.466;11.086;2022-11-18T06:19:22;6.07;;;4.20;;
1414;SDS011;702;49.466;11.086;2022-11-18T06:21:49;5.57;;;3.63;;
1414;SDS011;702;49.466;11.086;2022-11-18T06:24:17;4.70;;;4.20;;
1414;SDS011;702;49.466;11.086;2022-11-18T06:26:44;4.60;;;3.90;;
1414;SDS011;702;49.466;11.086;2022-11-18T06:29:14;5.20;;;4.03;;
1414;SDS011;702;49.466;11.086;2022-11-18T06:31:44;3.57;;;3.27;;
1414;SDS011;702;49.466;11.086;2022-11-18T06:34:11;4.40;;;4.00;;
1414;SDS011;702;49.466;11.086;2022-11-18T06:36:39;6.00;;;4.37;;
1414;SDS011;702;49.466;11.086;2022-11-18T06:39:06;5.17;;;4.47;;
1414;SDS011;702;49.466;11.086;2022-11-18T06:41:33;3.87;;;3.50;;
1414;SDS011;702;49.466;11.086;2022-11-18T06:44:02;4.77;;;3.93;;
1414;SDS011;702;49.466;11.086;2022-11-18T06:46:28;4.67;;;4.27;;
1414;SDS011;702;49.466;11.086;2022-11-18T06:49:13;6.87;;;4.03;;
1414;SDS011;702;49.466;11.086;2022-11-18T06:51:40;5.47;;;4.30;;
1414;SDS011;702;49.466;11.086;2022-11-18T06:54:07;4.50;;;4.10;;
1414;SDS011;702;49.466;11.086;2022-11-18T06:56:34;3.70;;;3.40;;
1414;SDS011;702;49.466;11.086;2022-11-18T06:59:03;4.70;;;4.13;;
1414;SDS011;702;49.466;11.086;2022-11-18T07:01:31;7.23;;;4.80;;
1414;SDS011;702;49.466;11.086;2022-11-18T07:04:02;6.47;;;3.97;;
1414;SDS011;702;49.466;11.086;2022-11-18T07:06:30;3.60;;;3.30;;
1414;SDS011;702;49.466;11.086;2022-11-18T07:09:00;3.47;;;2.87;;
1414;SDS011;702;49.466;11.086;2022-11-18T07:11:31;3.10;;;2.50;;
1414;SDS011;702;49.466;11.086;2022-11-18T07:13:59;3.53;;;2.77;;
1414;SDS011;702;49.466;11.086;2022-11-18T07:16:28;3.10;;;2.60;;
1414;SDS011;702;49.466;11.086;2022-11-18T07:18:56;2.90;;;2.70;;
1414;SDS011;702;49.466;11.086;2022-11-18T07:21:23;4.00;;;3.33;;
1414;SDS011;702;49.466;11.086;2022-11-18T07:23:52;3.83;;;3.43;;
1414;SDS011;702;49.466;11.086;2022-11-18T07:26:20;4.07;;;3.67;;
1414;SDS011;702;49.466;11.086;2022-11-18T07:28:48;6.00;;;3.70;;
1414;SDS011;702;49.466;11.086;2022-11-18T07:31:16;5.10;;;3.83;;
1414;SDS011;702;49.466;11.086;2022-11-18T07:33:46;4.60;;;4.20;;
1414;SDS011;702;49.466;11.086;2022-11-18T07:36:15;4.97;;;4.50;;
1414;SDS011;702;49.466;11.086;2022-11-18T07:38:45;5.53;;;5.07;;
1414;SDS011;702;49.466;11.086;2022-11-18T07:41:13;8.70;;;5.60;;
1414;SDS011;702;49.466;11.086;2022-11-18T07:43:42;5.60;;;4.83;;
1414;SDS011;702;49.466;11.086;2022-11-18T07:46:11;6.80;;;5.50;;
1414;SDS011;702;49.466;11.086;2022-11-18T07:48:41;6.03;;;4.87;;
1414;SDS011;702;49.466;11.086;2022-11-18T07:51:13;8.37;;;6.10;;
1414;SDS011;702;49.466;11.086;2022-11-18T07:53:42;7.77;;;6.93;;
1414;SDS011;702;49.466;11.086;2022-11-18T07:56:09;7.00;;;6.30;;
1414;SDS011;702;49.466;11.086;2022-11-18T07:58:37;7.93;;;7.00;;
1414;SDS011;702;49.466;11.086;2022-11-18T08:01:06;8.00;;;6.87;;
1414;SDS011;702;49.466;11.086;2022-11-18T08:03:34;8.43;;;6.70;;
1414;SDS011;702;49.466;11.086;2022-11-18T08:06:02;7.60;;;6.80;;
1414;SDS011;702;49.466;11.086;2022-11-18T08:08:33;7.90;;;7.10;;
1414;SDS011;702;49.466;11.086;2022-11-18T08:11:01;9.73;;;6.80;;
1414;SDS011;702;49.466;11.086;2022-11-18T08:13:31;9.60;;;7.30;;
1414;SDS011;702;49.466;11.086;2022-11-18T08:15:59;7.40;;;6.30;;
1414;SDS011;702;49.466;11.086;2022-11-18T08:18:27;7.13;;;6.43;;
1414;SDS011;702;49.466;11.086;2022-11-18T08:20:57;8.07;;;6.40;;
1414;SDS011;702;49.466;11.086;2022-11-18T08:23:28;6.10;;;5.50;;
1414;SDS011;702;49.466;11.086;2022-11-18T08:26:01;5.83;;;5.23;;
1414;SDS011;702;49.466;11.086;2022-11-18T08:28:31;5.33;;;4.73;;
1414;SDS011;702;49.466;11.086;2022-11-18T08:30:58;7.67;;;6.40;;
1414;SDS011;702;49.466;11.086;2022-11-18T08:33:25;5.13;;;4.60;;
1414;SDS011;702;49.466;11.086;2022-11-18T08:35:53;4.77;;;4.37;;
1414;SDS011;702;49.466;11.086;2022-11-18T08:38:20;5.33;;;3.43;;
1414;SDS011;702;49.466;11.086;2022-11-18T08:40:47;4.07;;;3.67;;
1414;SDS011;702;49.466;11.086;2022-11-18T08:43:16;4.70;;;3.50;;
1414;SDS011;702;49.466;11.086;2022-11-18T08:45:43;4.57;;;4.17;;
1414;SDS011;702;49.466;11.086;2022-11-18T08:48:10;4.00;;;3.37;;
1414;SDS011;702;49.466;11.086;2022-11-18T08:50:37;3.60;;;3.30;;
1414;SDS011;702;49.466;11.086;2022-11-18T08:53:04;4.50;;;3.87;;
1414;SDS011;702;49.466;11.086;2022-11-18T08:55:32;4.17;;;3.77;;
1414;SDS011;702;49.466;11.086;2022-11-18T08:57:59;3.80;;;3.50;;
1414;SDS011;702;49.466;11.086;2022-11-18T09:00:27;3.83;;;3.53;;
1414;SDS011;702;49.466;11.086;2022-11-18T09:02:55;3.03;;;2.83;;
1414;SDS011;702;49.466;11.086;2022-11-18T09:05:22;3.07;;;2.63;;
1414;SDS011;702;49.466;11.086;2022-11-18T09:07:49;2.70;;;2.50;;
1414;SDS011;702;49.466;11.086;2022-11-18T09:10:17;2.30;;;2.10;;
1414;SDS011;702;49.466;11.086;2022-11-18T09:12:44;1.77;;;1.60;;
1414;SDS011;702;49.466;11.086;2022-11-18T09:15:11;2.50;;;2.17;;
1414;SDS011;702;49.466;11.086;2022-11-18T09:17:40;2.60;;;2.40;;
1414;SDS011;702;49.466;11.086;2022-11-18T09:20:07;1.97;;;1.87;;
1414;SDS011;702;49.466;11.086;2022-11-18T09:22:35;1.97;;;1.87;;
1414;SDS011;702;49.466;11.086;2022-11-18T09:25:03;1.77;;;1.40;;
1414;SDS011;702;49.466;11.086;2022-11-18T09:27:31;4.33;;;1.90;;
1414;SDS011;702;49.466;11.086;2022-11-18T09:29:59;2.70;;;2.00;;
1414;SDS011;702;49.466;11.086;2022-11-18T09:32:26;1.93;;;1.73;;
1414;SDS011;702;49.466;11.086;2022-11-18T09:34:54;2.10;;;1.90;;
1414;SDS011;702;49.466;11.086;2022-11-18T09:37:22;1.80;;;1.50;;
1414;SDS011;702;49.466;11.086;2022-11-18T09:39:49;2.83;;;2.53;;
1414;SDS011;702;49.466;11.086;2022-11-18T09:42:24;2.47;;;1.80;;
1414;SDS011;702;49.466;11.086;2022-11-18T09:45:12;1.50;;;1.40;;
1414;SDS011;702;49.466;11.086;2022-11-18T09:47:49;2.83;;;1.80;;
1414;SDS011;702;49.466;11.086;2022-11-18T09:50:20;1.30;;;1.20;;
1414;SDS011;702;49.466;11.086;2022-11-18T09:52:49;1.20;;;1.10;;
1414;SDS011;702;49.466;11.086;2022-11-18T09:55:31;2.33;;;1.20;;
1414;SDS011;702;49.466;11.086;2022-11-18T09:58:02;1.23;;;1.13;;
1414;SDS011;702;49.466;11.086;2022-11-18T10:00:32;1.20;;;1.10;;
1414;SDS011;702;49.466;11.086;2022-11-18T10:03:00;1.43;;;1.30;;
1414;SDS011;702;49.466;11.086;2022-11-18T10:05:32;1.67;;;1.30;;
1414;SDS011;702;49.466;11.086;2022-11-18T10:08:14;2.60;;;1.30;;
1414;SDS011;702;49.466;11.086;2022-11-18T10:10:50;3.13;;;1.90;;
1414;SDS011;702;49.466;11.086;2022-11-18T10:13:29;1.67;;;1.50;;
1414;SDS011;702;49.466;11.086;2022-11-18T10:16:11;5.70;;;1.57;;
1414;SDS011;702;49.466;11.086;2022-11-18T10:18:51;1.10;;;1.10;;
1414;SDS011;702;49.466;11.086;2022-11-18T10:21:32;1.43;;;1.30;;
1414;SDS011;702;49.466;11.086;2022-11-18T10:24:14;1.43;;;1.20;;
1414;SDS011;702;49.466;11.086;2022-11-18T10:26:45;2.30;;;1.80;;
1414;SDS011;702;49.466;11.086;2022-11-18T10:29:13;2.20;;;1.23;;
1414;SDS011;702;49.466;11.086;2022-11-18T10:31:51;1.60;;;1.50;;
1414;SDS011;702;49.466;11.086;2022-11-18T10:34:21;2.50;;;1.43;;
1414;SDS011;702;49.466;11.086;2022-11-18T10:36:58;1.80;;;1.70;;
1414;SDS011;702;49.466;11.086;2022-11-18T10:39:27;1.40;;;1.30;;
1414;SDS011;702;49.466;11.086;2022-11-18T10:41:56;1.70;;;1.13;;
1414;SDS011;702;49.466;11.086;2022-11-18T10:44:28;1.83;;;1.33;;
1414;SDS011;702;49.466;11.086;2022-11-18T10:49:57;4.17;;;1.50;;
1414;SDS011;702;49.466;11.086;2022-11-18T10:52:28;1.57;;;1.47;;
1414;SDS011;702;49.466;11.086;2022-11-18T10:55:17;2.00;;;1.90;;
1414;SDS011;702;49.466;11.086;2022-11-18T10:57:48;1.87;;;1.77;;
1414;SDS011;702;49.466;11.086;2022-11-18T11:06:12;3.40;;;1.97;;
1414;SDS011;702;49.466;11.086;2022-11-18T11:08:56;4.67;;;1.70;;
1414;SDS011;702;49.466;11.086;2022-11-18T11:11:27;2.00;;;1.90;;
1414;SDS011;702;49.466;11.086;2022-11-18T11:14:10;2.60;;;1.87;;
1414;SDS011;702;49.466;11.086;2022-11-18T11:16:46;1.43;;;1.33;;
1414;SDS011;702;49.466;11.086;2022-11-18T11:19:27;3.57;;;1.73;;
1414;SDS011;702;49.466;11.086;2022-11-18T11:22:14;1.90;;;1.80;;
1414;SDS011;702;49.466;11.086;2022-11-18T11:24:44;1.87;;;1.77;;
1414;SDS011;702;49.466;11.086;2022-11-18T11:27:22;2.17;;;2.00;;
1414;SDS011;702;49.466;11.086;2022-11-18T11:30:16;1.93;;;1.83;;
1414;SDS011;702;49.466;11.086;2022-11-18T11:32:59;2.27;;;2.00;;
1414;SDS011;702;49.466;11.086;2022-11-18T11:35:46;1.80;;;1.70;;
1414;SDS011;702;49.466;11.086;2022-11-18T11:38:29;2.27;;;2.07;;
1414;SDS011;702;49.466;11.086;2022-11-18T11:41:11;1.83;;;1.70;;
1414;SDS011;702;49.466;11.086;2022-11-18T11:43:49;2.53;;;2.30;;
1414;SDS011;702;49.466;11.086;2022-11-18T11:46:41;2.33;;;2.20;;
1414;SDS011;702;49.466;11.086;2022-11-18T11:49:40;3.23;;;1.90;;
1414;SDS011;702;49.466;11.086;2022-11-18T11:52:19;2.00;;;1.90;;
1414;SDS011;702;49.466;11.086;2022-11-18T11:55:01;2.33;;;2.13;;
1414;SDS011;702;49.466;11.086;2022-11-18T11:57:44;2.80;;;2.60;;
1414;SDS011;702;49.466;11.086;2022-11-18T12:00:26;2.30;;;2.20;;
1414;SDS011;702;49.466;11.086;2022-11-18T12:03:02;2.40;;;2.30;;
1414;SDS011;702;49.466;11.086;2022-11-18T12:05:46;2.53;;;2.33;;
1414;SDS011;702;49.466;11.086;2022-11-18T12:08:13;2.60;;;2.43;;
1414;SDS011;702;49.466;11.086;2022-11-18T12:10:46;4.70;;;4.40;;
1414;SDS011;702;49.466;11.086;2022-11-18T12:13:23;3.13;;;2.83;;
1414;SDS011;702;49.466;11.086;2022-11-18T12:16:13;2.40;;;2.30;;
1414;SDS011;702;49.466;11.086;2022-11-18T12:18:50;2.97;;;2.77;;
1414;SDS011;702;49.466;11.086;2022-11-18T12:24:30;2.90;;;2.70;;
1414;SDS011;702;49.466;11.086;2022-11-18T12:27:01;3.10;;;2.90;;
1414;SDS011;702;49.466;11.086;2022-11-18T12:29:36;3.10;;;2.90;;
1414;SDS011;702;49.466;11.086;2022-11-18T12:32:29;2.40;;;2.30;;
1414;SDS011;702;49.466;11.086;2022-11-18T12:35:20;3.90;;;2.83;;
1414;SDS011;702;49.466;11.086;2022-11-18T12:37:58;2.83;;;2.23;;
1414;SDS011;702;49.466;11.086;2022-11-18T12:40:34;3.40;;;2.70;;
1414;SDS011;702;49.466;11.086;2022-11-18T12:43:05;2.70;;;2.50;;
1414;SDS011;702;49.466;11.086;2022-11-18T12:46:10;2.40;;;2.30;;
1414;SDS011;702;49.466;11.086;2022-11-18T12:52:45;2.50;;;2.40;;
1414;SDS011;702;49.466;11.086;2022-11-18T12:55:24;3.70;;;3.07;;
1414;SDS011;702;49.466;11.086;2022-11-18T12:58:17;2.20;;;2.00;;
1414;SDS011;702;49.466;11.086;2022-11-18T13:00:48;2.10;;;2.00;;
1414;SDS011;702;49.466;11.086;2022-11-18T13:03:24;3.03;;;2.83;;
1414;SDS011;702;49.466;11.086;2022-11-18T13:06:01;2.97;;;2.77;;
1414;SDS011;702;49.466;11.086;2022-11-18T13:08:37;2.80;;;2.60;;
1414;SDS011;702;49.466;11.086;2022-11-18T13:11:12;2.83;;;2.63;;
1414;SDS011;702;49.466;11.086;2022-11-18T13:13:59;3.13;;;2.47;;
1414;SDS011;702;49.466;11.086;2022-11-18T13:16:46;2.77;;;2.57;;
1414;SDS011;702;49.466;11.086;2022-11-18T13:19:34;2.60;;;2.40;;
1414;SDS011;702;49.466;11.086;2022-11-18T13:22:01;2.70;;;2.27;;
1414;SDS011;702;49.466;11.086;2022-11-18T13:24:47;2.70;;;2.50;;
1414;SDS011;702;49.466;11.086;2022-11-18T13:27:25;2.70;;;2.50;;
1414;SDS011;702;49.466;11.086;2022-11-18T13:30:03;3.60;;;2.10;;
1414;SDS011;702;49.466;11.086;2022-11-18T13:32:34;2.30;;;2.20;;
1414;SDS011;702;49.466;11.086;2022-11-18T13:35:06;2.97;;;2.43;;
1414;SDS011;702;49.466;11.086;2022-11-18T13:37:46;3.10;;;2.80;;
1414;SDS011;702;49.466;11.086;2022-11-18T13:40:20;3.40;;;2.73;;
1414;SDS011;702;49.466;11.086;2022-11-18T13:42:51;2.50;;;2.37;;
1414;SDS011;702;49.466;11.086;2022-11-18T13:45:19;2.57;;;2.37;;
1414;SDS011;702;49.466;11.086;2022-11-18T13:47:48;2.53;;;2.33;;
1414;SDS011;702;49.466;11.086;2022-11-18T13:50:21;2.93;;;2.73;;
1414;SDS011;702;49.466;11.086;2022-11-18T13:53:06;2.80;;;2.60;;
1414;SDS011;702;49.466;11.086;2022-11-18T13:55:44;3.03;;;2.80;;
1414;SDS011;702;49.466;11.086;2022-11-18T13:58:22;2.90;;;2.70;;
1414;SDS011;702;49.466;11.086;2022-11-18T14:01:03;4.10;;;2.47;;
1414;SDS011;702;49.466;11.086;2022-11-18T14:03:39;8.70;;;2.60;;
1414;SDS011;702;49.466;11.086;2022-11-18T14:06:27;2.80;;;2.60;;
1414;SDS011;702;49.466;11.086;2022-11-18T14:09:03;2.67;;;2.40;;
1414;SDS011;702;49.466;11.086;2022-11-18T14:11:33;3.10;;;2.90;;
1414;SDS011;702;49.466;11.086;2022-11-18T14:14:03;3.00;;;2.80;;
1414;SDS011;702;49.466;11.086;2022-11-18T14:16:32;4.00;;;3.50;;
1414;SDS011;702;49.466;11.086;2022-11-18T14:19:02;3.00;;;2.80;;
1414;SDS011;702;49.466;11.086;2022-11-18T14:21:32;3.27;;;2.97;;
1414;SDS011;702;49.466;11.086;2022-11-18T14:24:02;3.33;;;2.93;;
1414;SDS011;702;49.466;11.086;2022-11-18T14:26:31;2.93;;;2.73;;
1414;SDS011;702;49.466;11.086;2022-11-18T14:29:12;2.73;;;2.33;;
1414;SDS011;702;49.466;11.086;2022-11-18T14:32:01;5.97;;;3.00;;
1414;SDS011;702;49.466;11.086;2022-11-18T14:34:37;2.60;;;2.40;;
1414;SDS011;702;49.466;11.086;2022-11-18T14:37:10;2.40;;;2.30;;
1414;SDS011;702;49.466;11.086;2022-11-18T14:39:38;3.03;;;2.73;;
1414;SDS011;702;49.466;11.086;2022-11-18T14:42:09;2.70;;;2.50;;
1414;SDS011;702;49.466;11.086;2022-11-18T14:44:38;2.63;;;2.43;;
1414;SDS011;702;49.466;11.086;2022-11-18T14:47:10;3.07;;;2.70;;
1414;SDS011;702;49.466;11.086;2022-11-18T14:49:46;2.70;;;2.50;;
1414;SDS011;702;49.466;11.086;2022-11-18T14:52:14;3.17;;;2.87;;
1414;SDS011;702;49.466;11.086;2022-11-18T14:54:42;2.83;;;2.60;;
1414;SDS011;702;49.466;11.086;2022-11-18T14:57:09;3.40;;;2.20;;
1414;SDS011;702;49.466;11.086;2022-11-18T14:59:43;6.93;;;3.10;;
1414;SDS011;702;49.466;11.086;2022-11-18T15:02:11;2.47;;;2.27;;
1414;SDS011;702;49.466;11.086;2022-11-18T15:04:41;2.60;;;2.40;;
1414;SDS011;702;49.466;11.086;2022-11-18T15:07:10;2.70;;;2.47;;
1414;SDS011;702;49.466;11.086;2022-11-18T15:09:40;2.90;;;2.63;;
1414;SDS011;702;49.466;11.086;2022-11-18T15:12:08;2.87;;;2.67;;
1414;SDS011;702;49.466;11.086;2022-11-18T15:14:35;2.67;;;2.47;;
1414;SDS011;702;49.466;11.086;2022-11-18T15:17:02;4.43;;;2.87;;
1414;SDS011;702;49.466;11.086;2022-11-18T15:19:30;3.30;;;3.00;;
1414;SDS011;702;49.466;11.086;2022-11-18T15:21:58;2.90;;;2.70;;
1414;SDS011;702;49.466;11.086;2022-11-18T15:24:25;2.97;;;2.77;;
1414;SDS011;702;49.466;11.086;2022-11-18T15:26:53;4.90;;;3.60;;
1414;SDS011;702;49.466;11.086;2022-11-18T15:29:22;3.33;;;3.13;;
1414;SDS011;702;49.466;11.086;2022-11-18T15:31:53;3.30;;;3.00;;
1414;SDS011;702;49.466;11.086;2022-11-18T15:34:20;3.47;;;3.10;;
1414;SDS011;702;49.466;11.086;2022-11-18T15:36:47;3.60;;;3.30;;
1414;SDS011;702;49.466;11.086;2022-11-18T15:39:15;3.73;;;3.23;;
1414;SDS011;702;49.466;11.086;2022-11-18T15:41:42;3.60;;;3.30;;
1414;SDS011;702;49.466;11.086;2022-11-18T15:44:11;3.77;;;3.47;;
1414;SDS011;702;49.466;11.086;2022-11-18T15:46:38;3.70;;;3.40;;
1414;SDS011;702;49.466;11.086;2022-11-18T15:49:06;3.60;;;3.07;;
1414;SDS011;702;49.466;11.086;2022-11-18T15:51:38;5.53;;;3.60;;
1414;SDS011;702;49.466;11.086;2022-11-18T15:54:06;3.93;;;3.63;;
1414;SDS011;702;49.466;11.086;2022-11-18T15:56:33;4.50;;;4.17;;
1414;SDS011;702;49.466;11.086;2022-11-18T15:59:02;3.83;;;3.53;;